createdAt,value
2022-12-16T00:01:28.630Z,12.20
2022-12-16T00:04:17.574Z,11.57
2022-12-16T00:07:04.073Z,10.93
2022-12-16T00:09:50.720Z,12.17
2022-12-16T00:12:37.993Z,10.40
2022-12-16T00:15:24.121Z,13.00
2022-12-16T00:18:10.281Z,11.53
2022-12-16T00:20:56.735Z,10.43
2022-12-16T00:23:43.042Z,10.30
2022-12-16T00:26:31.143Z,11.30
2022-12-16T00:29:18.466Z,11.50
2022-12-16T00:32:05.006Z,12.20
2022-12-16T00:34:51.625Z,10.80
2022-12-16T00:37:38.064Z,10.53
2022-12-16T00:40:24.255Z,9.53
2022-12-16T00:43:10.994Z,9.80
2022-12-16T00:45:57.396Z,11.20
2022-12-16T00:48:44.078Z,10.43
2022-12-16T00:51:30.430Z,12.83
2022-12-16T00:54:16.548Z,11.10
2022-12-16T00:57:03.062Z,11.73
2022-12-16T00:59:49.269Z,10.37
2022-12-16T01:02:35.817Z,12.37
2022-12-16T01:05:26.843Z,12.17
2022-12-16T01:08:13.200Z,12.17
2022-12-16T01:11:00.031Z,11.63
2022-12-16T01:13:46.954Z,11.60
2022-12-16T01:16:35.095Z,12.40
2022-12-16T01:19:21.445Z,13.57
2022-12-16T01:22:07.656Z,11.43
2022-12-16T01:24:54.907Z,12.87
2022-12-16T01:27:41.716Z,11.73
2022-12-16T01:30:27.998Z,10.73
2022-12-16T01:33:14.170Z,10.53
2022-12-16T01:36:02.286Z,10.30
2022-12-16T01:38:48.981Z,10.47
2022-12-16T01:41:35.190Z,11.40
2022-12-16T01:44:24.253Z,12.90
2022-12-16T01:47:20.741Z,11.40
2022-12-16T01:50:14.785Z,11.77
2022-12-16T01:53:04.665Z,13.20
2022-12-16T01:55:53.329Z,12.07
2022-12-16T01:58:41.646Z,13.03
2022-12-16T02:01:28.424Z,12.50
2022-12-16T02:04:14.784Z,11.73
2022-12-16T02:07:01.534Z,11.37
2022-12-16T02:09:48.249Z,12.33
2022-12-16T02:12:46.465Z,12.00
2022-12-16T02:15:54.243Z,10.70
2022-12-16T02:18:51.779Z,11.43
2022-12-16T02:21:56.676Z,11.67
2022-12-16T02:25:01.305Z,10.43
2022-12-16T02:28:11.330Z,11.30
2022-12-16T02:31:00.578Z,10.60
2022-12-16T02:34:13.328Z,11.67
2022-12-16T02:37:23.620Z,12.27
2022-12-16T02:40:36.122Z,12.37
2022-12-16T02:43:48.620Z,9.37
2022-12-16T02:46:40.766Z,10.33
2022-12-16T02:49:26.952Z,8.77
2022-12-16T02:52:14.216Z,9.63
2022-12-16T02:55:09.076Z,8.00
2022-12-16T02:58:07.487Z,9.63
2022-12-16T03:01:13.571Z,9.03
2022-12-16T03:04:27.673Z,9.70
2022-12-16T03:07:17.284Z,11.43
2022-12-16T03:10:10.645Z,8.60
2022-12-16T03:12:59.681Z,9.90
2022-12-16T03:15:48.394Z,9.60
2022-12-16T03:18:36.555Z,8.37
2022-12-16T03:21:27.572Z,8.23
2022-12-16T03:24:14.739Z,7.53
2022-12-16T03:27:12.775Z,9.20
2022-12-16T03:30:06.650Z,8.37
2022-12-16T03:32:58.339Z,9.27
2022-12-16T03:35:54.439Z,10.60
2022-12-16T03:38:42.504Z,9.17
2022-12-16T03:41:31.335Z,7.70
2022-12-16T03:44:18.483Z,9.70
2022-12-16T03:47:05.837Z,8.80
2022-12-16T03:49:52.431Z,7.93
2022-12-16T03:52:38.676Z,9.40
2022-12-16T03:55:25.013Z,7.80
2022-12-16T03:58:11.182Z,8.87
2022-12-16T04:00:57.604Z,10.13
2022-12-16T04:03:44.026Z,9.77
2022-12-16T04:06:30.632Z,9.13
2022-12-16T04:09:16.761Z,9.90
2022-12-16T04:12:21.962Z,10.07
2022-12-16T04:15:27.273Z,9.33
2022-12-16T04:18:34.927Z,9.33
2022-12-16T04:21:39.725Z,10.77
2022-12-16T04:24:28.955Z,9.03
2022-12-16T04:27:27.907Z,9.23
2022-12-16T04:30:21.991Z,8.83
2022-12-16T04:33:30.838Z,8.70
2022-12-16T04:36:36.207Z,9.33
2022-12-16T04:40:00.832Z,8.07
2022-12-16T04:43:05.958Z,9.87
2022-12-16T04:46:11.175Z,9.33
2022-12-16T04:49:16.207Z,11.17
2022-12-16T04:52:21.119Z,9.37
2022-12-16T04:55:26.914Z,10.83
2022-12-16T04:58:33.258Z,9.53
2022-12-16T05:01:38.013Z,10.90
2022-12-16T05:04:43.335Z,10.27
2022-12-16T05:07:48.364Z,10.90
2022-12-16T05:10:53.394Z,9.37
2022-12-16T05:13:58.349Z,10.77
2022-12-16T05:17:03.209Z,15.40
2022-12-16T05:20:08.358Z,35.07
2022-12-16T05:23:15.267Z,14.37
2022-12-16T05:26:19.946Z,21.20
2022-12-16T05:29:24.809Z,27.10
2022-12-16T05:32:29.542Z,29.10
2022-12-16T05:35:34.323Z,14.77
2022-12-16T05:38:39.154Z,26.70
2022-12-16T05:41:44.001Z,27.73
2022-12-16T05:44:48.890Z,27.97
2022-12-16T05:47:53.711Z,13.97
2022-12-16T05:50:58.484Z,14.43
2022-12-16T05:54:03.494Z,14.40
2022-12-16T05:57:08.634Z,11.87
2022-12-16T06:00:13.764Z,11.33
2022-12-16T06:03:18.680Z,11.33
2022-12-16T06:06:23.783Z,10.20
2022-12-16T06:09:28.637Z,10.60
2022-12-16T06:12:33.665Z,8.30
2022-12-16T06:15:38.869Z,11.97
2022-12-16T06:18:43.581Z,10.47
2022-12-16T06:21:48.806Z,9.63
2022-12-16T06:24:53.579Z,10.43
2022-12-16T06:27:58.338Z,10.90
2022-12-16T06:31:03.319Z,10.20
2022-12-16T06:34:08.198Z,8.83
2022-12-16T06:37:13.065Z,10.10
2022-12-16T06:40:18.029Z,9.20
2022-12-16T06:43:22.992Z,7.37
2022-12-16T06:46:29.059Z,9.30
2022-12-16T06:49:34.156Z,8.30
2022-12-16T06:52:39.345Z,8.47
2022-12-16T06:55:44.192Z,9.60
2022-12-16T06:58:49.274Z,9.53
2022-12-16T07:01:54.237Z,7.23
2022-12-16T07:04:59.299Z,7.27
2022-12-16T07:08:08.908Z,8.13
2022-12-16T07:11:17.096Z,8.60
2022-12-16T07:14:22.344Z,6.77
2022-12-16T07:17:27.592Z,6.47
2022-12-16T07:20:32.436Z,6.77
2022-12-16T07:23:37.356Z,7.60
2022-12-16T07:26:41.972Z,9.03
2022-12-16T07:29:46.766Z,7.63
2022-12-16T07:32:51.725Z,6.97
2022-12-16T07:35:56.639Z,6.30
2022-12-16T07:39:01.950Z,6.87
2022-12-16T07:42:07.126Z,7.10
2022-12-16T07:45:12.064Z,7.00
2022-12-16T07:48:17.141Z,10.70
2022-12-16T07:51:22.486Z,11.40
2022-12-16T07:54:27.471Z,10.67
2022-12-16T07:57:32.501Z,7.53
2022-12-16T08:00:37.275Z,10.37
2022-12-16T08:03:42.117Z,10.83
2022-12-16T08:06:47.466Z,8.77
2022-12-16T08:09:52.445Z,10.77
2022-12-16T08:12:57.425Z,7.93
2022-12-16T08:16:02.307Z,7.97
2022-12-16T08:19:11.032Z,8.40
2022-12-16T08:22:16.507Z,7.87
2022-12-16T08:25:21.312Z,12.53
2022-12-16T08:28:26.219Z,9.17
2022-12-16T08:31:30.965Z,7.10
2022-12-16T08:34:36.269Z,8.40
2022-12-16T08:37:41.147Z,8.60
2022-12-16T08:40:46.025Z,8.53
2022-12-16T08:43:52.866Z,7.77
2022-12-16T08:46:58.012Z,8.97
2022-12-16T08:50:03.107Z,8.73
2022-12-16T08:53:08.149Z,8.50
2022-12-16T08:56:13.154Z,7.97
2022-12-16T08:59:18.115Z,7.43
2022-12-16T09:02:39.973Z,9.17
2022-12-16T09:05:45.330Z,10.03
2022-12-16T09:08:50.758Z,7.70
2022-12-16T09:11:55.972Z,10.50
2022-12-16T09:15:01.040Z,8.10
2022-12-16T09:18:13.897Z,8.70
2022-12-16T09:21:18.838Z,8.57
2022-12-16T09:24:24.120Z,9.03
2022-12-16T09:27:29.003Z,9.63
2022-12-16T09:30:34.086Z,9.97
2022-12-16T09:33:38.665Z,7.70
2022-12-16T09:36:43.507Z,8.17
2022-12-16T09:39:48.277Z,7.10
2022-12-16T09:43:12.041Z,6.90
2022-12-16T09:46:29.340Z,8.53
2022-12-16T09:49:40.574Z,7.37
2022-12-16T09:52:46.930Z,7.13
2022-12-16T09:55:58.299Z,6.97
2022-12-16T09:59:30.319Z,8.30
2022-12-16T10:02:38.038Z,8.00
2022-12-16T10:05:53.034Z,6.37
2022-12-16T10:09:13.367Z,9.00
2022-12-16T10:12:53.856Z,6.93
2022-12-16T10:16:30.566Z,6.93
2022-12-16T10:19:54.163Z,6.43
2022-12-16T10:23:18.282Z,7.20
2022-12-16T10:26:38.410Z,6.93
2022-12-16T10:29:48.287Z,6.67
2022-12-16T10:33:06.141Z,6.50
2022-12-16T10:36:13.074Z,7.70
2022-12-16T10:39:25.503Z,6.60
2022-12-16T10:42:52.385Z,6.93
2022-12-16T10:46:04.285Z,6.83
2022-12-16T10:49:10.601Z,6.27
2022-12-16T10:52:15.492Z,5.93
2022-12-16T10:55:52.936Z,7.40
2022-12-16T10:59:00.688Z,6.40
2022-12-16T11:02:38.774Z,6.40
2022-12-16T11:05:46.711Z,6.77
2022-12-16T11:08:55.486Z,7.50
2022-12-16T11:12:00.607Z,7.70
2022-12-16T11:15:29.218Z,8.10
2022-12-16T11:18:40.079Z,7.77
2022-12-16T11:21:45.069Z,7.30
2022-12-16T11:24:50.774Z,6.13
2022-12-16T11:27:55.698Z,7.73
2022-12-16T11:31:01.114Z,10.43
2022-12-16T11:34:07.715Z,8.77
2022-12-16T11:37:15.560Z,8.77
2022-12-16T11:40:24.162Z,6.70
2022-12-16T11:43:32.351Z,7.90
2022-12-16T11:46:46.491Z,6.77
2022-12-16T11:49:52.183Z,8.47
2022-12-16T11:52:58.010Z,7.73
2022-12-16T11:56:14.013Z,7.23
2022-12-16T11:59:24.605Z,7.20
2022-12-16T12:02:42.611Z,7.03
2022-12-16T12:05:56.810Z,11.90
2022-12-16T12:09:23.880Z,7.90
2022-12-16T12:12:47.662Z,6.57
2022-12-16T12:16:16.598Z,6.47
2022-12-16T12:19:32.235Z,6.70
2022-12-16T12:22:57.743Z,6.13
2022-12-16T12:26:26.291Z,6.47
2022-12-16T12:29:38.823Z,6.63
2022-12-16T12:33:04.546Z,6.00
2022-12-16T12:36:23.493Z,5.27
2022-12-16T12:39:34.729Z,5.80
2022-12-16T12:42:49.704Z,6.47
2022-12-16T12:46:22.648Z,5.93
2022-12-16T12:49:44.065Z,6.20
2022-12-16T12:53:19.567Z,5.47
2022-12-16T12:56:40.798Z,4.93
2022-12-16T13:00:02.907Z,5.30
2022-12-16T13:03:33.348Z,5.50
2022-12-16T13:06:39.922Z,5.50
2022-12-16T13:09:51.932Z,15.70
2022-12-16T13:12:57.263Z,10.53
2022-12-16T13:16:02.018Z,9.00
2022-12-16T13:19:09.806Z,6.10
2022-12-16T13:22:14.821Z,6.73
2022-12-16T13:25:23.967Z,5.43
2022-12-16T13:28:59.142Z,5.97
2022-12-16T13:32:19.880Z,7.10
2022-12-16T13:35:28.057Z,6.20
2022-12-16T13:38:38.727Z,5.73
2022-12-16T13:41:43.370Z,7.73
2022-12-16T13:45:31.267Z,9.73
2022-12-16T13:48:51.574Z,10.43
2022-12-16T13:51:56.211Z,6.87
2022-12-16T13:55:18.877Z,7.13
2022-12-16T13:58:40.300Z,6.33
2022-12-16T14:02:06.698Z,7.87
2022-12-16T14:05:12.320Z,5.87
2022-12-16T14:08:17.766Z,6.60
2022-12-16T14:11:25.599Z,6.83
2022-12-16T14:14:50.001Z,6.50
2022-12-16T14:18:11.236Z,9.40
2022-12-16T14:21:20.537Z,6.30
2022-12-16T14:24:36.853Z,6.90
2022-12-16T14:27:43.014Z,6.93
2022-12-16T14:30:48.973Z,6.87
2022-12-16T14:33:53.959Z,8.00
2022-12-16T14:36:59.334Z,10.97
2022-12-16T14:40:07.515Z,8.63
2022-12-16T14:43:13.304Z,6.33
2022-12-16T14:46:18.554Z,8.67
2022-12-16T14:52:46.009Z,7.63
2022-12-16T14:56:01.154Z,9.70
2022-12-16T14:59:24.612Z,9.50
2022-12-16T15:02:46.224Z,8.20
2022-12-16T15:05:53.921Z,7.37
2022-12-16T15:09:13.235Z,9.63
2022-12-16T15:12:18.271Z,7.33
2022-12-16T15:15:46.735Z,8.50
2022-12-16T15:18:57.098Z,6.80
2022-12-16T15:22:02.476Z,8.83
2022-12-16T15:25:07.479Z,10.23
2022-12-16T15:28:14.075Z,11.20
2022-12-16T15:31:18.842Z,9.40
2022-12-16T15:35:06.585Z,8.47
2022-12-16T15:38:28.750Z,7.73
2022-12-16T15:41:49.802Z,8.93
2022-12-16T15:44:55.073Z,7.33
2022-12-16T15:48:00.176Z,16.10
2022-12-16T15:51:11.404Z,9.87
2022-12-16T15:54:22.918Z,9.07
2022-12-16T15:57:50.998Z,8.97
2022-12-16T16:01:12.532Z,9.40
2022-12-16T16:04:18.313Z,10.87
2022-12-16T16:07:35.263Z,13.30
2022-12-16T16:10:43.508Z,12.17
2022-12-16T16:13:48.411Z,11.80
2022-12-16T16:16:53.472Z,11.10
2022-12-16T16:20:03.216Z,11.17
2022-12-16T16:23:08.688Z,13.33
2022-12-16T16:26:14.294Z,12.30
2022-12-16T16:29:27.288Z,11.50
2022-12-16T16:32:31.992Z,9.43
2022-12-16T16:35:37.150Z,9.47
2022-12-16T16:38:41.976Z,8.13
2022-12-16T16:41:46.978Z,9.97
2022-12-16T16:44:51.927Z,7.47
2022-12-16T16:47:57.086Z,7.97
2022-12-16T16:51:01.985Z,9.13
2022-12-16T16:54:07.698Z,9.20
2022-12-16T16:57:12.409Z,8.13
2022-12-16T17:00:17.208Z,10.20
2022-12-16T17:03:22.590Z,8.63
2022-12-16T17:06:27.599Z,11.60
2022-12-16T17:09:32.630Z,9.97
2022-12-16T17:12:42.791Z,10.10
2022-12-16T17:15:55.249Z,9.33
2022-12-16T17:19:00.147Z,12.37
2022-12-16T17:22:04.980Z,13.57
2022-12-16T17:25:09.897Z,7.83
2022-12-16T17:28:14.947Z,8.83
2022-12-16T17:31:19.903Z,9.47
2022-12-16T17:34:25.413Z,13.30
2022-12-16T17:37:30.329Z,11.00
2022-12-16T17:40:49.626Z,9.47
2022-12-16T17:43:54.268Z,17.90
2022-12-16T17:46:59.236Z,9.40
2022-12-16T17:50:04.372Z,11.20
2022-12-16T17:53:17.026Z,12.90
2022-12-16T17:56:23.718Z,9.13
2022-12-16T17:59:28.430Z,11.47
2022-12-16T18:02:33.611Z,9.53
2022-12-16T18:05:44.234Z,13.83
2022-12-16T18:08:51.096Z,8.50
2022-12-16T18:11:55.937Z,9.03
2022-12-16T18:15:00.750Z,9.30
2022-12-16T18:18:09.056Z,8.73
2022-12-16T18:21:13.826Z,9.03
2022-12-16T18:24:18.774Z,7.70
2022-12-16T18:27:23.963Z,9.93
2022-12-16T18:30:29.484Z,8.43
2022-12-16T18:33:34.886Z,6.97
2022-12-16T18:36:39.975Z,7.17
2022-12-16T18:39:45.148Z,8.03
2022-12-16T18:42:50.085Z,8.33
2022-12-16T18:45:57.107Z,20.63
2022-12-16T18:49:02.356Z,7.90
2022-12-16T18:52:07.533Z,8.80
2022-12-16T18:55:15.483Z,7.33
2022-12-16T18:58:50.929Z,7.43
2022-12-16T19:01:57.583Z,8.57
2022-12-16T19:05:02.758Z,19.00
2022-12-16T19:08:11.200Z,9.90
2022-12-16T19:11:29.990Z,13.13
2022-12-16T19:14:54.640Z,7.77
2022-12-16T19:17:59.807Z,8.97
2022-12-16T19:21:14.383Z,8.57
2022-12-16T19:24:19.365Z,7.33
2022-12-16T19:27:24.328Z,8.63
2022-12-16T19:30:29.318Z,10.53
2022-12-16T19:33:35.907Z,14.40
2022-12-16T19:36:45.321Z,10.30
2022-12-16T19:39:51.843Z,14.73
2022-12-16T19:42:57.087Z,12.40
2022-12-16T19:46:02.242Z,10.83
2022-12-16T19:49:06.970Z,8.53
2022-12-16T19:52:11.684Z,9.80
2022-12-16T19:55:17.775Z,13.93
2022-12-16T19:58:22.855Z,11.17
2022-12-16T20:01:28.481Z,8.47
2022-12-16T20:04:33.501Z,8.53
2022-12-16T20:07:38.245Z,8.37
2022-12-16T20:10:43.197Z,7.77
2022-12-16T20:13:48.470Z,8.27
2022-12-16T20:16:53.364Z,7.67
2022-12-16T20:19:58.485Z,8.33
2022-12-16T20:23:03.442Z,9.73
2022-12-16T20:26:16.801Z,8.10
2022-12-16T20:29:21.879Z,7.77
2022-12-16T20:32:26.790Z,9.13
2022-12-16T20:35:39.245Z,8.43
2022-12-16T20:38:43.950Z,8.67
2022-12-16T20:41:49.234Z,7.27
2022-12-16T20:44:54.104Z,8.70
2022-12-16T20:48:01.292Z,9.37
2022-12-16T20:54:42.126Z,9.67
2022-12-16T20:57:47.062Z,9.77
2022-12-16T21:00:51.651Z,7.60
2022-12-16T21:03:56.979Z,10.03
2022-12-16T21:07:01.984Z,8.53
2022-12-16T21:10:06.914Z,9.53
2022-12-16T21:13:12.175Z,7.90
2022-12-16T21:16:18.732Z,8.93
2022-12-16T21:19:27.924Z,7.37
2022-12-16T21:22:36.178Z,9.70
2022-12-16T21:25:40.999Z,10.50
2022-12-16T21:28:46.149Z,7.67
2022-12-16T21:31:51.103Z,9.07
2022-12-16T21:34:58.448Z,9.40
2022-12-16T21:38:03.214Z,8.60
2022-12-16T21:41:12.122Z,8.43
2022-12-16T21:44:17.247Z,8.20
2022-12-16T21:47:22.472Z,9.13
2022-12-16T21:50:28.211Z,8.93
2022-12-16T21:53:37.174Z,10.37
2022-12-16T21:56:42.447Z,9.17
2022-12-16T21:59:47.450Z,8.97
2022-12-16T22:02:55.402Z,9.47
2022-12-16T22:06:01.251Z,11.27
2022-12-16T22:09:06.240Z,9.30
2022-12-16T22:12:11.479Z,9.43
2022-12-16T22:15:16.729Z,8.20
2022-12-16T22:18:22.146Z,9.33
2022-12-16T22:21:28.201Z,8.90
2022-12-16T22:24:33.311Z,9.30
2022-12-16T22:27:38.497Z,11.23
2022-12-16T22:30:43.503Z,11.03
2022-12-16T22:33:48.951Z,9.43
2022-12-16T22:36:56.677Z,9.37
2022-12-16T22:40:01.530Z,8.57
2022-12-16T22:43:07.379Z,9.77
2022-12-16T22:46:20.888Z,9.53
2022-12-16T22:49:26.217Z,9.83
2022-12-16T22:52:32.386Z,10.13
2022-12-16T22:55:37.817Z,9.97
2022-12-16T22:58:42.609Z,10.43
2022-12-16T23:01:47.471Z,13.53
2022-12-16T23:04:52.828Z,11.93
2022-12-16T23:07:59.295Z,12.07
2022-12-16T23:11:14.764Z,10.70
2022-12-16T23:14:20.672Z,12.03
2022-12-16T23:17:25.846Z,12.53
2022-12-16T23:20:33.266Z,12.60
2022-12-16T23:23:39.993Z,11.43
2022-12-16T23:26:45.107Z,13.23
2022-12-16T23:29:51.563Z,11.60
2022-12-16T23:32:57.246Z,14.47
2022-12-16T23:36:02.436Z,11.47
2022-12-16T23:39:07.694Z,12.90
2022-12-16T23:42:12.669Z,14.83
2022-12-16T23:45:18.169Z,10.93
2022-12-16T23:48:25.625Z,14.40
2022-12-16T23:51:30.391Z,12.50
2022-12-16T23:54:37.507Z,11.63
2022-12-16T23:57:56.370Z,12.77
